10liff — V2CH5 — position and weather

sailwx.info

Track history (hours):
 
Tides and Currents Weather Stations Pressure Air Temp Water Temp Dewpoint Dewpoint Depression Visibility Wind Speed Wind Dir Waves Ship Positions

10liff

Last reported at 2017-Nov-23 01:35 UTC. Time now 2017-Nov-25 04:10 UTC.
Position N 22°21' E 114°07'.

Length 143 m; draft 6 m.

Type: Ship. MMSI: 304939206.

Date/timePositionNaut miles runAvg speedWind from/ knotsBaromVisibWave heightAir tempDewpointWater temp
2017-Nov-23 01:35N 22°21' E 114°07'0 1.1
2017-Nov-23 01:29N 22°20' E 114°07'0 0.0
2017-Nov-22 23:29N 22°20' E 114°07'0 0.0
2017-Nov-22 22:41N 22°20' E 114°07'0 0.3
2017-Nov-22 22:29N 22°20' E 114°07'0 0.0
2017-Nov-22 20:11N 22°20' E 114°07'  
2017-Nov-17 08:55N 34°06' E 134°56'717.1
2017-Nov-17 08:30N 34°12' E 134°58'915.8
2017-Nov-17 07:58N 34°21' E 134°59'715.9
2017-Nov-17 07:30N 34°26' E 135°05'816.5
2017-Nov-17 07:00N 34°32' E 135°13'714.7
2017-Nov-17 06:30N 34°39' E 135°16'2 3.3
2017-Nov-17 05:55N 34°40' E 135°14'0 0.0
2017-Nov-17 05:25N 34°40' E 135°14'0 0.0
2017-Nov-17 04:49N 34°40' E 135°14'0 0.0
2017-Nov-17 04:19N 34°40' E 135°14'0 0.0
2017-Nov-17 03:55N 34°40' E 135°14'0 0.0
2017-Nov-17 03:25N 34°40' E 135°14'0 0.0
2017-Nov-17 02:43N 34°40' E 135°14'0 0.0
2017-Nov-17 02:25N 34°40' E 135°14'0 0.0
2017-Nov-17 01:55N 34°40' E 135°14'0 0.0
2017-Nov-17 01:25N 34°40' E 135°14'0 0.0
2017-Nov-17 00:49N 34°40' E 135°14'0 0.0
2017-Nov-17 00:25N 34°40' E 135°14'0 0.0
2017-Nov-16 23:55N 34°40' E 135°14'0 0.0
2017-Nov-16 23:25N 34°40' E 135°14'0 0.0
2017-Nov-16 22:59N 34°40' E 135°14'2 3.6
2017-Nov-16 22:31N 34°39' E 135°16'5 9.4
2017-Nov-16 22:00N 34°37' E 135°21'3 5.7
2017-Nov-16 21:27N 34°39' E 135°24'0 0.0
2017-Nov-16 20:57N 34°39' E 135°24'0 0.0
2017-Nov-16 20:27N 34°39' E 135°24'0 0.0
2017-Nov-16 19:57N 34°39' E 135°24'0 0.0
2017-Nov-16 19:27N 34°39' E 135°24'0 0.0
2017-Nov-16 18:57N 34°39' E 135°24'0 0.0
2017-Nov-16 18:27N 34°39' E 135°24'0 0.0
2017-Nov-16 17:51N 34°39' E 135°24'0 0.0
2017-Nov-16 17:27N 34°39' E 135°24'0 0.0
2017-Nov-16 16:57N 34°39' E 135°24'0 0.0
2017-Nov-16 16:27N 34°39' E 135°24'0 0.0
2017-Nov-16 15:57N 34°39' E 135°24'0 0.0
2017-Nov-16 15:27N 34°39' E 135°24'0 0.0
2017-Nov-16 14:57N 34°39' E 135°24'0 0.0
2017-Nov-16 14:27N 34°39' E 135°24'0 0.0
2017-Nov-16 13:51N 34°39' E 135°24'0 0.0
2017-Nov-16 13:27N 34°39' E 135°24'0 0.0
2017-Nov-16 12:45N 34°39' E 135°24'0 0.0
2017-Nov-16 12:27N 34°39' E 135°24'0 0.6
2017-Nov-16 12:00N 34°39' E 135°24'3 7.1
2017-Nov-16 11:30N 34°36' E 135°21'3 6.3
2017-Nov-16 11:00N 34°35' E 135°18'714.0
2017-Nov-16 10:30N 34°29' E 135°12'815.5
2017-Nov-16 10:01N 34°24' E 135°05'916.8
2017-Nov-16 09:30N 34°17' E 134°59'816.6
2017-Nov-16 09:01N 34°09' E 134°60'816.5
2017-Nov-16 08:30N 34°01' E 134°59'230 4.5
2017-Nov-14 05:06N 34°58' E 139°29'216.4
2017-Nov-14 05:00N 34°59' E 139°31'816.4
2017-Nov-14 04:30N 35°04' E 139°39'816.4
2017-Nov-14 04:00N 35°10' E 139°45'612.5
2017-Nov-14 03:30N 35°16' E 139°45'611.8
2017-Nov-14 03:00N 35°22' E 139°42'5 9.8
2017-Nov-14 02:30N 35°27' E 139°41'0 0.4
2017-Nov-14 01:58N 35°26' E 139°41'0 0.0
2017-Nov-14 01:28N 35°26' E 139°41'0 0.0
2017-Nov-14 00:56N 35°26' E 139°41'0 0.0
2017-Nov-14 00:28N 35°26' E 139°41'0 0.0
2017-Nov-13 23:58N 35°26' E 139°41'0 0.0
2017-Nov-13 23:28N 35°26' E 139°41'1 1.3
2017-Nov-13 23:00N 35°27' E 139°41'1 2.5
2017-Nov-13 22:29N 35°26' E 139°42'0 0.1
2017-Nov-13 21:59N 35°25' E 139°42'0 0.0
2017-Nov-13 01:55N 35°26' E 139°42'  
Track history (hours):
 
Tides and Currents Weather Stations Pressure Air Temp Water Temp Dewpoint Dewpoint Depression Visibility Wind Speed Wind Dir Waves Ship Positions

10liff

Last reported at 2017-Nov-23 01:35 UTC. Time now 2017-Nov-25 04:10 UTC.
Position N 22°21' E 114°07'.

Length 143 m; draft 6 m.

Type: Ship. MMSI: 304939206.

Date/timePositionNaut miles runAvg speedWind from/ knotsBaromVisibWave heightAir tempDewpointWater temp
2017-Nov-23 01:35N 22°21' E 114°07'0 1.1
2017-Nov-23 01:29N 22°20' E 114°07'0 0.0
2017-Nov-22 23:29N 22°20' E 114°07'0 0.0
2017-Nov-22 22:41N 22°20' E 114°07'0 0.3
2017-Nov-22 22:29N 22°20' E 114°07'0 0.0
2017-Nov-22 20:11N 22°20' E 114°07'  
2017-Nov-17 08:55N 34°06' E 134°56'717.1
2017-Nov-17 08:30N 34°12' E 134°58'915.8
2017-Nov-17 07:58N 34°21' E 134°59'715.9
2017-Nov-17 07:30N 34°26' E 135°05'816.5
2017-Nov-17 07:00N 34°32' E 135°13'714.7
2017-Nov-17 06:30N 34°39' E 135°16'2 3.3
2017-Nov-17 05:55N 34°40' E 135°14'0 0.0
2017-Nov-17 05:25N 34°40' E 135°14'0 0.0
2017-Nov-17 04:49N 34°40' E 135°14'0 0.0
2017-Nov-17 04:19N 34°40' E 135°14'0 0.0
2017-Nov-17 03:55N 34°40' E 135°14'0 0.0
2017-Nov-17 03:25N 34°40' E 135°14'0 0.0
2017-Nov-17 02:43N 34°40' E 135°14'0 0.0
2017-Nov-17 02:25N 34°40' E 135°14'0 0.0
2017-Nov-17 01:55N 34°40' E 135°14'0 0.0
2017-Nov-17 01:25N 34°40' E 135°14'0 0.0
2017-Nov-17 00:49N 34°40' E 135°14'0 0.0
2017-Nov-17 00:25N 34°40' E 135°14'0 0.0
2017-Nov-16 23:55N 34°40' E 135°14'0 0.0
2017-Nov-16 23:25N 34°40' E 135°14'0 0.0
2017-Nov-16 22:59N 34°40' E 135°14'2 3.6
2017-Nov-16 22:31N 34°39' E 135°16'5 9.4
2017-Nov-16 22:00N 34°37' E 135°21'3 5.7
2017-Nov-16 21:27N 34°39' E 135°24'0 0.0
2017-Nov-16 20:57N 34°39' E 135°24'0 0.0
2017-Nov-16 20:27N 34°39' E 135°24'0 0.0
2017-Nov-16 19:57N 34°39' E 135°24'0 0.0
2017-Nov-16 19:27N 34°39' E 135°24'0 0.0
2017-Nov-16 18:57N 34°39' E 135°24'0 0.0
2017-Nov-16 18:27N 34°39' E 135°24'0 0.0
2017-Nov-16 17:51N 34°39' E 135°24'0 0.0
2017-Nov-16 17:27N 34°39' E 135°24'0 0.0
2017-Nov-16 16:57N 34°39' E 135°24'0 0.0
2017-Nov-16 16:27N 34°39' E 135°24'0 0.0
2017-Nov-16 15:57N 34°39' E 135°24'0 0.0
2017-Nov-16 15:27N 34°39' E 135°24'0 0.0
2017-Nov-16 14:57N 34°39' E 135°24'0 0.0
2017-Nov-16 14:27N 34°39' E 135°24'0 0.0
2017-Nov-16 13:51N 34°39' E 135°24'0 0.0
2017-Nov-16 13:27N 34°39' E 135°24'0 0.0
2017-Nov-16 12:45N 34°39' E 135°24'0 0.0
2017-Nov-16 12:27N 34°39' E 135°24'0 0.6
2017-Nov-16 12:00N 34°39' E 135°24'3 7.1
2017-Nov-16 11:30N 34°36' E 135°21'3 6.3
2017-Nov-16 11:00N 34°35' E 135°18'714.0
2017-Nov-16 10:30N 34°29' E 135°12'815.5
2017-Nov-16 10:01N 34°24' E 135°05'916.8
2017-Nov-16 09:30N 34°17' E 134°59'816.6
2017-Nov-16 09:01N 34°09' E 134°60'816.5
2017-Nov-16 08:30N 34°01' E 134°59'230 4.5
2017-Nov-14 05:06N 34°58' E 139°29'216.4
2017-Nov-14 05:00N 34°59' E 139°31'816.4
2017-Nov-14 04:30N 35°04' E 139°39'816.4
2017-Nov-14 04:00N 35°10' E 139°45'612.5
2017-Nov-14 03:30N 35°16' E 139°45'611.8
2017-Nov-14 03:00N 35°22' E 139°42'5 9.8
2017-Nov-14 02:30N 35°27' E 139°41'0 0.4
2017-Nov-14 01:58N 35°26' E 139°41'0 0.0
2017-Nov-14 01:28N 35°26' E 139°41'0 0.0
2017-Nov-14 00:56N 35°26' E 139°41'0 0.0
2017-Nov-14 00:28N 35°26' E 139°41'0 0.0
2017-Nov-13 23:58N 35°26' E 139°41'0 0.0
2017-Nov-13 23:28N 35°26' E 139°41'1 1.3
2017-Nov-13 23:00N 35°27' E 139°41'1 2.5
2017-Nov-13 22:29N 35°26' E 139°42'0 0.1
2017-Nov-13 21:59N 35°25' E 139°42'0 0.0
2017-Nov-13 01:55N 35°26' E 139°42'  

Dump ship's entire track history